YKN weather

Chan Gurney Municipal Airport
Yankton, South Dakota, United States

Public forecast

Using degrees Fahrenheit for public forecast. Weather courtesy of forecast.io.

Current aviation weather report (METAR) for Chan Gurney Municipal Airport

Retrieved 2019/10/23 11:56 UTC (8 minutes ago):

KYKN 231156Z AUTO 12003KT 10SM OVC060 A2978 RMK AO2 SLPNO 60000 51006 FZRANO

Closest aviation forecast (TAF) to Chan Gurney Municipal Airport

Closest forecast is Joe Foss Field Airport, 48.9 nm (90.5 km) NE. Retrieved 2019/10/23 12:22 UTC (0 seconds ago):

TAF KFSD 231120Z 2312/2412 08005KT P6SM VCSH OVC070 FM231500 04007KT 3SM -SHRA OVC018 FM231600 04007KT 1SM -SHSN OVC009 FM232000 36009KT P6SM VCSH OVC010 FM232100 35010KT P6SM OVC018 FM240500 32006KT P6SM SCT150